createdAt,value
2016-06-12T00:00:06.011Z,0
2016-06-12T00:01:05.998Z,0
2016-06-12T00:02:05.954Z,0
2016-06-12T00:03:05.942Z,0
2016-06-12T00:04:05.913Z,0
2016-06-12T00:05:06.338Z,0
2016-06-12T00:06:05.873Z,0
2016-06-12T00:07:05.861Z,0
2016-06-12T00:08:05.833Z,0
2016-06-12T00:09:05.845Z,0
2016-06-12T00:10:05.871Z,0
2016-06-12T00:11:05.881Z,0
2016-06-12T00:12:05.875Z,0
2016-06-12T00:13:05.916Z,0
2016-06-12T00:14:05.910Z,0
2016-06-12T00:15:05.910Z,0
2016-06-12T00:16:05.897Z,0
2016-06-12T00:17:05.882Z,0
2016-06-12T00:18:05.899Z,0
2016-06-12T00:19:05.863Z,0
2016-06-12T00:20:06.371Z,0
2016-06-12T00:21:05.676Z,0
2016-06-12T00:22:05.809Z,0
2016-06-12T00:23:05.801Z,0
2016-06-12T00:24:05.792Z,0
2016-06-12T00:25:05.797Z,0
2016-06-12T00:26:05.599Z,0
2016-06-12T00:27:05.729Z,0
2016-06-12T00:28:05.718Z,0
2016-06-12T00:29:05.706Z,0
2016-06-12T00:30:05.523Z,0
2016-06-12T00:31:05.666Z,0
2016-06-12T00:32:05.639Z,0
2016-06-12T00:33:05.611Z,0
2016-06-12T00:34:05.584Z,0
2016-06-12T00:35:05.602Z,0
2016-06-12T00:36:05.402Z,0
2016-06-12T00:37:05.531Z,0
2016-06-12T00:38:05.519Z,0
2016-06-12T00:39:05.490Z,0
2016-06-12T00:40:05.463Z,0
2016-06-12T00:41:05.309Z,0
2016-06-12T00:42:05.282Z,0
2016-06-12T00:43:05.424Z,0
2016-06-12T00:44:05.397Z,0
2016-06-12T00:45:05.369Z,0
2016-06-12T00:46:05.340Z,0
2016-06-12T00:47:05.172Z,0
2016-06-12T00:48:05.315Z,0
2016-06-12T00:49:05.287Z,0
2016-06-12T00:50:07.135Z,0
2016-06-12T00:51:05.246Z,0
2016-06-12T00:52:05.063Z,0
2016-06-12T00:53:05.205Z,0
2016-06-12T00:54:05.194Z,0
2016-06-12T00:55:05.150Z,0
2016-06-12T00:56:05.136Z,0
2016-06-12T00:57:05.124Z,0
2016-06-12T00:58:05.112Z,0
2016-06-12T00:59:04.927Z,0
2016-06-12T01:00:05.055Z,0
2016-06-12T01:01:05.043Z,0
2016-06-12T01:02:05.014Z,0
2016-06-12T01:03:05.002Z,0
2016-06-12T01:04:04.975Z,0
2016-06-12T01:05:05.414Z,0
2016-06-12T01:06:04.933Z,0
2016-06-12T01:07:04.904Z,0
2016-06-12T01:08:04.893Z,0
2016-06-12T01:09:04.864Z,0
2016-06-12T01:10:04.852Z,0
2016-06-12T01:11:04.824Z,0
2016-06-12T01:12:04.794Z,0
2016-06-12T01:13:04.783Z,0
2016-06-12T01:14:04.770Z,0
2016-06-12T01:15:04.742Z,0
2016-06-12T01:16:04.715Z,0
2016-06-12T01:17:04.701Z,0
2016-06-12T01:18:04.689Z,0
2016-06-12T01:19:04.660Z,0
2016-06-12T01:20:05.085Z,0
2016-06-12T01:21:04.619Z,0
2016-06-12T01:22:04.607Z,0
2016-06-12T01:23:04.595Z,0
2016-06-12T01:24:04.411Z,0
2016-06-12T01:25:04.539Z,0
2016-06-12T01:26:04.510Z,0
2016-06-12T01:27:04.498Z,0
2016-06-12T01:28:04.329Z,0
2016-06-12T01:29:04.457Z,0
2016-06-12T01:30:04.429Z,0
2016-06-12T01:31:04.417Z,0
2016-06-12T01:32:04.403Z,0
2016-06-12T01:33:04.359Z,0
2016-06-12T01:34:04.348Z,0
2016-06-12T01:35:05.288Z,0
2016-06-12T01:36:04.791Z,0
2016-06-12T01:37:04.279Z,0
2016-06-12T01:38:04.250Z,0
2016-06-12T01:39:04.238Z,0
2016-06-12T01:40:04.210Z,0
2016-06-12T01:41:04.042Z,0
2016-06-12T01:42:04.184Z,0
2016-06-12T01:43:04.156Z,0
2016-06-12T01:44:04.128Z,0
2016-06-12T01:45:04.116Z,0
2016-06-12T01:46:04.088Z,0
2016-06-12T01:47:04.059Z,0
2016-06-12T01:48:04.047Z,0
2016-06-12T01:49:04.019Z,0
2016-06-12T01:50:04.334Z,0
2016-06-12T01:51:03.853Z,0
2016-06-12T01:52:03.965Z,0
2016-06-12T01:53:03.953Z,0
2016-06-12T01:54:03.909Z,0
2016-06-12T01:55:03.897Z,0
2016-06-12T01:56:03.868Z,0
2016-06-12T01:57:03.855Z,0
2016-06-12T01:58:03.828Z,0
2016-06-12T01:59:03.814Z,0
2016-06-12T02:00:03.787Z,0
2016-06-12T02:01:03.775Z,0
2016-06-12T02:02:03.762Z,0
2016-06-12T02:03:03.734Z,0
2016-06-12T02:04:03.565Z,0
2016-06-12T02:05:04.240Z,0
2016-06-12T02:06:04.274Z,0
2016-06-12T02:07:03.652Z,0
2016-06-12T02:08:03.624Z,0
2016-06-12T02:09:03.440Z,0
2016-06-12T02:10:03.584Z,0
2016-06-12T02:11:03.556Z,0
2016-06-12T02:12:03.543Z,0
2016-06-12T02:13:03.515Z,0
2016-06-12T02:14:03.502Z,0
2016-06-12T02:15:03.474Z,0
2016-06-12T02:16:03.461Z,0
2016-06-12T02:17:03.433Z,0
2016-06-12T02:18:03.248Z,0
2016-06-12T02:19:03.236Z,0
2016-06-12T02:20:04.286Z,0
2016-06-12T02:21:03.664Z,0
2016-06-12T02:22:03.371Z,0
2016-06-12T02:23:03.357Z,0
2016-06-12T02:24:03.360Z,0
2016-06-12T02:25:03.269Z,0
2016-06-12T02:26:03.242Z,0
2016-06-12T02:27:03.230Z,0
2016-06-12T02:28:03.200Z,0
2016-06-12T02:29:03.032Z,0
2016-06-12T02:30:03.160Z,0
2016-06-12T02:31:02.992Z,0
2016-06-12T02:32:02.963Z,0
2016-06-12T02:33:03.092Z,0
2016-06-12T02:34:03.110Z,0
2016-06-12T02:35:03.050Z,0
2016-06-12T02:36:03.710Z,0
2016-06-12T02:37:03.010Z,0
2016-06-12T02:38:02.982Z,0
2016-06-12T02:39:02.985Z,0
2016-06-12T02:40:02.941Z,0
2016-06-12T02:41:02.928Z,0
2016-06-12T02:42:02.760Z,0
2016-06-12T02:43:02.888Z,0
2016-06-12T02:44:02.875Z,0
2016-06-12T02:45:02.863Z,0
2016-06-12T02:46:02.819Z,0
2016-06-12T02:47:02.806Z,0
2016-06-12T02:48:02.622Z,0
2016-06-12T02:49:02.750Z,0
2016-06-12T02:50:04.378Z,0
2016-06-12T02:51:03.146Z,0
2016-06-12T02:52:02.682Z,0
2016-06-12T02:53:02.684Z,0
2016-06-12T02:54:02.655Z,0
2016-06-12T02:55:02.644Z,0
2016-06-12T02:56:02.459Z,0
2016-06-12T02:57:02.586Z,0
2016-06-12T02:58:02.575Z,0
2016-06-12T02:59:02.578Z,0
2016-06-12T03:00:02.549Z,0
2016-06-12T03:01:02.505Z,0
2016-06-12T03:02:02.477Z,0
2016-06-12T03:03:02.465Z,0
2016-06-12T03:04:02.452Z,0
2016-06-12T03:05:02.425Z,0
2016-06-12T03:06:02.349Z,0
2016-06-12T03:07:02.242Z,0
2016-06-12T03:08:02.356Z,0
2016-06-12T03:09:02.327Z,0
2016-06-12T03:10:02.314Z,0
2016-06-12T03:11:02.302Z,0
2016-06-12T03:12:02.274Z,0
2016-06-12T03:13:02.246Z,5
2016-06-12T03:14:02.217Z,5
2016-06-12T03:15:02.205Z,5
2016-06-12T03:16:02.193Z,5
2016-06-12T03:17:02.164Z,5
2016-06-12T03:18:01.995Z,5
2016-06-12T03:19:02.123Z,5
2016-06-12T03:20:02.095Z,5
2016-06-12T03:21:02.692Z,5
2016-06-12T03:22:02.069Z,5
2016-06-12T03:23:02.041Z,5
2016-06-12T03:24:02.014Z,5
2016-06-12T03:25:01.986Z,10
2016-06-12T03:26:01.973Z,10
2016-06-12T03:27:01.945Z,10
2016-06-12T03:28:01.932Z,10
2016-06-12T03:29:01.748Z,10
2016-06-12T03:30:01.892Z,10
2016-06-12T03:31:01.863Z,10
2016-06-12T03:32:01.835Z,10
2016-06-12T03:33:01.823Z,10
2016-06-12T03:34:01.811Z,15
2016-06-12T03:35:01.798Z,15
2016-06-12T03:36:01.784Z,15
2016-06-12T03:37:01.726Z,15
2016-06-12T03:38:01.713Z,15
2016-06-12T03:39:01.701Z,15
2016-06-12T03:40:01.516Z,15
2016-06-12T03:41:01.644Z,15
2016-06-12T03:42:01.632Z,15
2016-06-12T03:43:01.603Z,20
2016-06-12T03:44:01.575Z,20
2016-06-12T03:45:01.562Z,20
2016-06-12T03:46:01.550Z,20
2016-06-12T03:47:01.522Z,20
2016-06-12T03:48:01.494Z,20
2016-06-12T03:49:01.481Z,20
2016-06-12T03:50:01.453Z,20
2016-06-12T03:51:01.972Z,25
2016-06-12T03:52:01.412Z,25
2016-06-12T03:53:01.400Z,25
2016-06-12T03:54:01.387Z,25
2016-06-12T03:55:01.360Z,25
2016-06-12T03:56:01.346Z,30
2016-06-12T03:57:01.302Z,30
2016-06-12T03:58:01.290Z,30
2016-06-12T03:59:01.262Z,35
2016-06-12T04:00:01.234Z,35
2016-06-12T04:01:01.237Z,35
2016-06-12T04:02:01.192Z,35
2016-06-12T04:03:01.180Z,40
2016-06-12T04:04:01.168Z,40
2016-06-12T04:05:01.140Z,40
2016-06-12T04:06:01.580Z,40
2016-06-12T04:07:01.083Z,45
2016-06-12T04:08:00.915Z,45
2016-06-12T04:09:01.058Z,45
2016-06-12T04:10:01.046Z,45
2016-06-12T04:11:01.002Z,50
2016-06-12T04:12:00.817Z,50
2016-06-12T04:13:00.961Z,50
2016-06-12T04:14:00.949Z,55
2016-06-12T04:15:00.936Z,55
2016-06-12T04:16:00.768Z,60
2016-06-12T04:17:00.896Z,60
2016-06-12T04:18:00.852Z,60
2016-06-12T04:19:00.838Z,60
2016-06-12T04:20:00.827Z,65
2016-06-12T04:21:00.642Z,65
2016-06-12T04:22:00.770Z,70
2016-06-12T04:23:00.773Z,75
2016-06-12T04:24:00.729Z,75
2016-06-12T04:25:00.718Z,80
2016-06-12T04:26:00.688Z,80
2016-06-12T04:27:00.676Z,85
2016-06-12T04:28:00.647Z,90
2016-06-12T04:29:00.636Z,90
2016-06-12T04:30:00.608Z,95
2016-06-12T04:31:00.579Z,100
2016-06-12T04:32:00.566Z,105
2016-06-12T04:33:00.398Z,110
2016-06-12T04:34:00.526Z,120
2016-06-12T04:35:00.498Z,125
2016-06-12T04:36:00.641Z,125
2016-06-12T04:37:00.457Z,125
2016-06-12T04:38:00.429Z,125
2016-06-12T04:39:00.416Z,125
2016-06-12T04:40:00.403Z,120
2016-06-12T04:41:00.376Z,120
2016-06-12T04:42:00.363Z,115
2016-06-12T04:43:00.335Z,115
2016-06-12T04:44:00.322Z,110
2016-06-12T04:45:00.138Z,110
2016-06-12T04:46:00.266Z,110
2016-06-12T04:47:00.269Z,110
2016-06-12T04:48:00.225Z,110
2016-06-12T04:49:00.212Z,110
2016-06-12T04:50:00.200Z,110
2016-06-12T04:51:00.812Z,115
2016-06-12T04:52:00.410Z,115
2016-06-12T04:52:59.959Z,120
2016-06-12T04:53:59.962Z,120
2016-06-12T04:55:00.091Z,125
2016-06-12T04:56:00.063Z,130
2016-06-12T04:57:00.049Z,130
2016-06-12T04:58:00.037Z,130
2016-06-12T04:59:00.009Z,125
2016-06-12T04:59:59.981Z,125
2016-06-12T05:00:59.812Z,120
2016-06-12T05:01:59.784Z,120
2016-06-12T05:02:59.927Z,120
2016-06-12T05:03:59.915Z,120
2016-06-12T05:04:59.886Z,120
2016-06-12T05:06:00.781Z,120
2016-06-12T05:06:59.706Z,125
2016-06-12T05:07:59.817Z,135
2016-06-12T05:08:59.820Z,140
2016-06-12T05:09:59.793Z,140
2016-06-12T05:10:59.780Z,150
2016-06-12T05:11:59.767Z,160
2016-06-12T05:12:59.740Z,165
2016-06-12T05:13:59.711Z,175
2016-06-12T05:14:59.683Z,185
2016-06-12T05:15:59.670Z,185
2016-06-12T05:16:59.642Z,190
2016-06-12T05:17:59.614Z,205
2016-06-12T05:18:59.602Z,205
2016-06-12T05:19:59.589Z,210
2016-06-12T05:20:59.467Z,210
2016-06-12T05:22:00.705Z,220
2016-06-12T05:22:59.552Z,225
2016-06-12T05:23:59.507Z,225
2016-06-12T05:24:59.495Z,230
2016-06-12T05:25:59.482Z,235
2016-06-12T05:26:59.314Z,245
2016-06-12T05:27:59.442Z,250
2016-06-12T05:28:59.414Z,260
2016-06-12T05:29:59.385Z,265
2016-06-12T05:30:59.389Z,270
2016-06-12T05:31:59.391Z,270
2016-06-12T05:32:59.348Z,280
2016-06-12T05:33:59.319Z,280
2016-06-12T05:34:59.308Z,280
2016-06-12T05:35:59.716Z,285
2016-06-12T05:36:59.485Z,285
2016-06-12T05:37:59.254Z,285
2016-06-12T05:38:59.241Z,290
2016-06-12T05:39:59.213Z,300
2016-06-12T05:40:59.185Z,310
2016-06-12T05:41:59.172Z,320
2016-06-12T05:42:59.160Z,330
2016-06-12T05:43:59.147Z,340
2016-06-12T05:44:59.119Z,345
2016-06-12T05:45:59.091Z,345
2016-06-12T05:46:59.078Z,350
2016-06-12T05:47:59.081Z,340
2016-06-12T05:48:59.037Z,350
2016-06-12T05:49:59.024Z,370
2016-06-12T05:51:00.528Z,445
2016-06-12T05:51:59.625Z,500
2016-06-12T05:52:58.972Z,535
2016-06-12T05:53:58.975Z,530
2016-06-12T05:54:58.931Z,495
2016-06-12T05:55:58.918Z,485
2016-06-12T05:56:58.765Z,500
2016-06-12T05:57:58.879Z,545
2016-06-12T05:58:58.724Z,550
2016-06-12T05:59:58.837Z,520
2016-06-12T06:00:58.841Z,505
2016-06-12T06:01:58.843Z,465
2016-06-12T06:02:58.800Z,460
2016-06-12T06:03:58.786Z,440
2016-06-12T06:04:58.775Z,410
2016-06-12T06:05:58.761Z,520
2016-06-12T06:06:59.218Z,635
2016-06-12T06:07:58.737Z,595
2016-06-12T06:08:58.708Z,620
2016-06-12T06:09:58.696Z,620
2016-06-12T06:10:58.683Z,675
2016-06-12T06:11:58.671Z,700
2016-06-12T06:12:58.674Z,750
2016-06-12T06:13:58.645Z,700
2016-06-12T06:14:58.634Z,635
2016-06-12T06:15:58.589Z,600
2016-06-12T06:16:58.576Z,605
2016-06-12T06:17:58.580Z,530
2016-06-12T06:18:58.568Z,575
2016-06-12T06:19:58.571Z,545
2016-06-12T06:20:59.198Z,500
2016-06-12T06:21:58.702Z,630
2016-06-12T06:22:58.517Z,655
2016-06-12T06:23:58.489Z,685
2016-06-12T06:24:58.476Z,610
2016-06-12T06:25:58.308Z,560
2016-06-12T06:26:58.295Z,600
2016-06-12T06:27:58.298Z,685
2016-06-12T06:28:58.270Z,665
2016-06-12T06:29:58.414Z,685
2016-06-12T06:30:58.417Z,645
2016-06-12T06:31:58.388Z,670
2016-06-12T06:32:58.220Z,705
2016-06-12T06:33:58.364Z,640
2016-06-12T06:34:58.350Z,790
2016-06-12T06:35:59.151Z,705
2016-06-12T06:36:58.435Z,735
2016-06-12T06:37:58.297Z,650
2016-06-12T06:38:58.285Z,705
2016-06-12T06:39:58.289Z,865
2016-06-12T06:40:58.261Z,640
2016-06-12T06:41:58.247Z,700
2016-06-12T06:42:58.251Z,620
2016-06-12T06:43:58.237Z,680
2016-06-12T06:44:58.226Z,700
2016-06-12T06:45:58.213Z,785
2016-06-12T06:46:58.185Z,845
2016-06-12T06:47:58.172Z,760
2016-06-12T06:48:58.159Z,640
2016-06-12T06:49:58.147Z,650
2016-06-12T06:50:58.134Z,775
2016-06-12T06:51:59.075Z,920
2016-06-12T06:52:58.125Z,1320
2016-06-12T06:53:58.112Z,935
2016-06-12T06:54:58.099Z,735
2016-06-12T06:55:58.071Z,675
2016-06-12T06:56:58.060Z,640
2016-06-12T06:57:58.063Z,750
2016-06-12T06:58:58.049Z,575
2016-06-12T06:59:57.897Z,460
2016-06-12T07:00:58.040Z,435
2016-06-12T07:01:58.012Z,430
2016-06-12T07:02:58.015Z,450
2016-06-12T07:03:57.987Z,470
2016-06-12T07:04:57.990Z,475
2016-06-12T07:05:57.977Z,460
2016-06-12T07:06:57.966Z,455
2016-06-12T07:07:57.937Z,455
2016-06-12T07:08:57.940Z,460
2016-06-12T07:09:57.911Z,465
2016-06-12T07:10:57.915Z,475
2016-06-12T07:11:57.902Z,485
2016-06-12T07:12:57.890Z,490
2016-06-12T07:13:57.876Z,510
2016-06-12T07:14:57.865Z,520
2016-06-12T07:15:57.868Z,530
2016-06-12T07:16:57.824Z,535
2016-06-12T07:17:57.842Z,540
2016-06-12T07:18:57.814Z,535
2016-06-12T07:19:57.801Z,525
2016-06-12T07:20:57.789Z,540
2016-06-12T07:21:57.807Z,560
2016-06-12T07:22:57.796Z,540
2016-06-12T07:23:57.752Z,555
2016-06-12T07:24:57.738Z,540
2016-06-12T07:25:57.727Z,545
2016-06-12T07:26:57.713Z,535
2016-06-12T07:27:57.544Z,535
2016-06-12T07:28:57.689Z,515
2016-06-12T07:29:57.692Z,505
2016-06-12T07:30:57.679Z,500
2016-06-12T07:31:57.667Z,495
2016-06-12T07:32:57.638Z,495
2016-06-12T07:33:57.469Z,500
2016-06-12T07:34:57.613Z,515
2016-06-12T07:35:57.616Z,540
2016-06-12T07:36:58.072Z,590
2016-06-12T07:37:57.576Z,575
2016-06-12T07:38:57.579Z,585
2016-06-12T07:39:57.551Z,595
2016-06-12T07:40:57.398Z,630
2016-06-12T07:41:57.526Z,710
2016-06-12T07:42:57.529Z,760
2016-06-12T07:43:57.516Z,765
2016-06-12T07:44:57.503Z,1085
2016-06-12T07:45:57.491Z,905
2016-06-12T07:46:57.463Z,920
2016-06-12T07:47:57.450Z,855
2016-06-12T07:48:57.437Z,820
2016-06-12T07:49:57.440Z,785
2016-06-12T07:50:57.428Z,780
2016-06-12T07:51:57.493Z,740
2016-06-12T07:52:57.403Z,740
2016-06-12T07:53:57.406Z,755
2016-06-12T07:54:57.378Z,775
2016-06-12T07:55:57.366Z,730
2016-06-12T07:56:57.353Z,700
2016-06-12T07:57:57.200Z,660
2016-06-12T07:58:57.343Z,635
2016-06-12T07:59:57.331Z,615
2016-06-12T08:00:57.318Z,615
2016-06-12T08:01:57.306Z,605
2016-06-12T08:02:57.293Z,610
2016-06-12T08:03:57.281Z,610
2016-06-12T08:04:57.268Z,615
2016-06-12T08:05:57.271Z,610
2016-06-12T08:06:57.900Z,600
2016-06-12T08:07:57.230Z,590
2016-06-12T08:08:57.234Z,595
2016-06-12T08:09:57.205Z,585
2016-06-12T08:10:57.193Z,580
2016-06-12T08:11:57.196Z,585
2016-06-12T08:12:57.199Z,600
2016-06-12T08:13:57.155Z,640
2016-06-12T08:14:57.158Z,865
2016-06-12T08:15:57.130Z,1040
2016-06-12T08:16:57.133Z,1015
2016-06-12T08:17:57.120Z,1025
2016-06-12T08:18:57.140Z,1215
2016-06-12T08:19:56.954Z,1100
2016-06-12T08:20:57.099Z,985
2016-06-12T08:21:57.399Z,930
2016-06-12T08:22:57.074Z,1050
2016-06-12T08:23:57.061Z,965
2016-06-12T08:24:57.048Z,1080
2016-06-12T08:25:57.037Z,1030
2016-06-12T08:26:57.039Z,1040
2016-06-12T08:27:57.026Z,945
2016-06-12T08:28:56.874Z,915
2016-06-12T08:29:57.001Z,860
2016-06-12T08:30:57.005Z,875
2016-06-12T08:31:56.976Z,885
2016-06-12T08:32:56.963Z,930
2016-06-12T08:33:56.967Z,1050
2016-06-12T08:34:56.813Z,1090
2016-06-12T08:35:56.957Z,1170
2016-06-12T08:36:57.820Z,1185
2016-06-12T08:37:57.057Z,1170
2016-06-12T08:38:56.919Z,1015
2016-06-12T08:39:56.907Z,1005
2016-06-12T08:40:56.894Z,910
2016-06-12T08:41:56.898Z,1070
2016-06-12T08:42:56.870Z,1065
2016-06-12T08:43:56.872Z,1155
2016-06-12T08:44:56.876Z,1255
2016-06-12T08:45:56.862Z,1100
2016-06-12T08:46:56.850Z,1115
2016-06-12T08:47:56.682Z,985
2016-06-12T08:48:56.841Z,1070
2016-06-12T08:49:56.828Z,1180
2016-06-12T08:50:56.831Z,1250
2016-06-12T08:51:56.850Z,1110
2016-06-12T08:52:57.369Z,1135
2016-06-12T08:53:56.795Z,1095
2016-06-12T08:54:56.813Z,1045
2016-06-12T08:55:56.784Z,880
2016-06-12T08:56:56.772Z,925
2016-06-12T08:57:56.775Z,1150
2016-06-12T08:58:56.763Z,1245
2016-06-12T08:59:56.765Z,1040
2016-06-12T09:00:56.769Z,825
2016-06-12T09:01:56.756Z,825
2016-06-12T09:02:56.728Z,765
2016-06-12T09:03:56.731Z,740
2016-06-12T09:04:56.718Z,725
2016-06-12T09:05:56.706Z,705
2016-06-12T09:06:57.334Z,685
2016-06-12T09:07:56.713Z,675
2016-06-12T09:08:56.683Z,650
2016-06-12T09:09:56.668Z,650
2016-06-12T09:10:56.515Z,655
2016-06-12T09:11:56.659Z,665
2016-06-12T09:12:56.505Z,690
2016-06-12T09:13:56.648Z,720
2016-06-12T09:14:56.622Z,750
2016-06-12T09:15:56.681Z,770
2016-06-12T09:16:56.694Z,790
2016-06-12T09:17:56.722Z,795
2016-06-12T09:18:56.750Z,800
2016-06-12T09:19:56.793Z,795
2016-06-12T09:20:56.796Z,790
2016-06-12T09:21:57.313Z,775
2016-06-12T09:22:56.987Z,760
2016-06-12T09:23:56.802Z,750
2016-06-12T09:24:56.803Z,745
2016-06-12T09:25:56.811Z,750
2016-06-12T09:26:56.804Z,760
2016-06-12T09:27:56.812Z,765
2016-06-12T09:28:56.789Z,770
2016-06-12T09:29:56.782Z,775
2016-06-12T09:30:56.787Z,765
2016-06-12T09:31:56.775Z,755
2016-06-12T09:32:56.765Z,755
2016-06-12T09:33:56.769Z,765
2016-06-12T09:34:56.759Z,760
2016-06-12T09:35:56.747Z,755
2016-06-12T09:36:56.736Z,745
2016-06-12T09:37:57.365Z,745
2016-06-12T09:38:56.727Z,735
2016-06-12T09:39:56.748Z,725
2016-06-12T09:40:56.704Z,725
2016-06-12T09:41:56.691Z,720
2016-06-12T09:42:56.523Z,715
2016-06-12T09:43:56.698Z,700
2016-06-12T09:44:56.655Z,665
2016-06-12T09:45:56.643Z,645
2016-06-12T09:46:56.489Z,635
2016-06-12T09:47:56.649Z,625
2016-06-12T09:48:56.620Z,610
2016-06-12T09:49:56.592Z,595
2016-06-12T09:50:56.611Z,580
2016-06-12T09:51:56.724Z,565
2016-06-12T09:52:56.773Z,550
2016-06-12T09:53:56.573Z,530
2016-06-12T09:54:56.577Z,525
2016-06-12T09:55:56.549Z,520
2016-06-12T09:56:56.535Z,520
2016-06-12T09:57:56.522Z,520
2016-06-12T09:58:56.511Z,525
2016-06-12T09:59:56.498Z,540
2016-06-12T10:00:56.485Z,545
2016-06-12T10:01:56.332Z,555
2016-06-12T10:02:56.460Z,565
2016-06-12T10:03:56.448Z,575
2016-06-12T10:04:56.435Z,580
2016-06-12T10:05:56.422Z,590
2016-06-12T10:06:56.692Z,600
2016-06-12T10:07:57.928Z,605
2016-06-12T10:08:56.416Z,615
2016-06-12T10:09:56.388Z,620
2016-06-12T10:10:56.376Z,625
2016-06-12T10:11:56.347Z,630
2016-06-12T10:12:56.351Z,635
2016-06-12T10:13:56.338Z,635
2016-06-12T10:14:56.325Z,645
2016-06-12T10:15:56.313Z,655
2016-06-12T10:16:56.300Z,655
2016-06-12T10:17:56.303Z,640
2016-06-12T10:18:56.275Z,620
2016-06-12T10:19:56.263Z,610
2016-06-12T10:20:56.250Z,595
2016-06-12T10:21:56.237Z,585
2016-06-12T10:22:56.257Z,580
2016-06-12T10:23:56.228Z,575
2016-06-12T10:24:56.059Z,575
2016-06-12T10:25:56.203Z,575
2016-06-12T10:26:56.175Z,575
2016-06-12T10:27:56.178Z,570
2016-06-12T10:28:56.150Z,565
2016-06-12T10:29:56.137Z,565
2016-06-12T10:30:56.140Z,560
2016-06-12T10:31:56.128Z,565
2016-06-12T10:32:56.116Z,560
2016-06-12T10:33:56.119Z,555
2016-06-12T10:34:55.933Z,555
2016-06-12T10:35:56.093Z,550
2016-06-12T10:36:56.065Z,555
2016-06-12T10:37:56.490Z,560
2016-06-12T10:38:56.040Z,575
2016-06-12T10:39:56.043Z,585
2016-06-12T10:40:56.030Z,595
2016-06-12T10:41:56.033Z,595
2016-06-12T10:42:55.989Z,590
2016-06-12T10:43:55.977Z,590
2016-06-12T10:44:55.964Z,580
2016-06-12T10:45:55.952Z,580
2016-06-12T10:46:55.955Z,580
2016-06-12T10:47:55.801Z,580
2016-06-12T10:48:55.915Z,580
2016-06-12T10:49:55.918Z,580
2016-06-12T10:50:55.904Z,580
2016-06-12T10:51:55.892Z,585
2016-06-12T10:52:56.692Z,580
2016-06-12T10:53:55.710Z,575
2016-06-12T10:54:55.698Z,575
2016-06-12T10:55:55.826Z,570
2016-06-12T10:56:55.829Z,565
2016-06-12T10:57:55.817Z,560
2016-06-12T10:58:55.805Z,555
2016-06-12T10:59:55.791Z,545
2016-06-12T11:00:55.779Z,535
2016-06-12T11:01:55.766Z,530
2016-06-12T11:02:55.755Z,525
2016-06-12T11:03:55.742Z,500
2016-06-12T11:04:55.744Z,520
2016-06-12T11:05:55.717Z,505
2016-06-12T11:06:55.563Z,505
2016-06-12T11:07:55.862Z,500
2016-06-12T11:08:55.679Z,505
2016-06-12T11:09:55.666Z,515
2016-06-12T11:10:55.669Z,515
2016-06-12T11:11:55.641Z,510
2016-06-12T11:12:55.628Z,505
2016-06-12T11:13:55.631Z,500
2016-06-12T11:14:55.635Z,485
2016-06-12T11:15:55.607Z,475
2016-06-12T11:16:55.594Z,465
2016-06-12T11:17:55.566Z,460
2016-06-12T11:18:55.568Z,460
2016-06-12T11:19:55.572Z,455
2016-06-12T11:20:55.544Z,455
2016-06-12T11:21:55.531Z,455
2016-06-12T11:22:56.441Z,450
2016-06-12T11:23:55.506Z,445
2016-06-12T11:24:55.493Z,445
2016-06-12T11:25:55.481Z,445
2016-06-12T11:26:55.468Z,445
2016-06-12T11:27:55.471Z,440
2016-06-12T11:28:55.443Z,430
2016-06-12T11:29:55.259Z,435
2016-06-12T11:30:55.433Z,430
2016-06-12T11:31:55.421Z,430
2016-06-12T11:32:55.393Z,440
2016-06-12T11:33:55.396Z,450
2016-06-12T11:34:55.368Z,455
2016-06-12T11:35:55.340Z,465
2016-06-12T11:36:55.187Z,465
2016-06-12T11:37:55.800Z,455
2016-06-12T11:38:55.319Z,440
2016-06-12T11:39:55.306Z,425
2016-06-12T11:40:55.293Z,420
2016-06-12T11:41:55.295Z,425
2016-06-12T11:42:55.283Z,415
2016-06-12T11:43:55.270Z,400
2016-06-12T11:44:55.101Z,410
2016-06-12T11:45:55.074Z,410
2016-06-12T11:46:55.249Z,420
2016-06-12T11:47:55.221Z,425
2016-06-12T11:48:55.192Z,425
2016-06-12T11:49:55.180Z,415
2016-06-12T11:50:55.167Z,410
2016-06-12T11:51:55.170Z,410
2016-06-12T11:52:55.798Z,415
2016-06-12T11:53:55.380Z,410
2016-06-12T11:54:55.117Z,385
2016-06-12T11:55:55.105Z,375
2016-06-12T11:56:55.108Z,370
2016-06-12T11:57:55.094Z,345
2016-06-12T11:58:54.926Z,340
2016-06-12T11:59:55.055Z,330
2016-06-12T12:00:55.042Z,335
2016-06-12T12:01:55.045Z,350
2016-06-12T12:02:55.032Z,370
2016-06-12T12:03:55.020Z,385
2016-06-12T12:04:54.991Z,400
2016-06-12T12:05:54.994Z,415
2016-06-12T12:06:54.966Z,425
2016-06-12T12:07:55.750Z,425
2016-06-12T12:08:54.957Z,435
2016-06-12T12:09:54.928Z,460
2016-06-12T12:10:54.917Z,490
2016-06-12T12:11:54.903Z,495
2016-06-12T12:12:54.906Z,505
2016-06-12T12:13:54.738Z,505
2016-06-12T12:14:54.866Z,500
2016-06-12T12:15:54.854Z,475
2016-06-12T12:16:54.858Z,455
2016-06-12T12:17:54.703Z,445
2016-06-12T12:18:54.831Z,440
2016-06-12T12:19:54.820Z,415
2016-06-12T12:20:54.807Z,385
2016-06-12T12:21:54.794Z,370
2016-06-12T12:22:55.032Z,350
2016-06-12T12:23:55.222Z,330
2016-06-12T12:24:54.740Z,305
2016-06-12T12:25:54.728Z,290
2016-06-12T12:26:54.731Z,275
2016-06-12T12:27:54.546Z,265
2016-06-12T12:28:54.706Z,270
2016-06-12T12:29:54.693Z,280
2016-06-12T12:30:54.665Z,300
2016-06-12T12:31:54.497Z,325
2016-06-12T12:32:54.640Z,345
2016-06-12T12:33:54.628Z,375
2016-06-12T12:34:54.631Z,395
2016-06-12T12:35:54.461Z,425
2016-06-12T12:36:54.589Z,455
2016-06-12T12:37:55.217Z,490
2016-06-12T12:38:54.752Z,510
2016-06-12T12:39:54.553Z,520
2016-06-12T12:40:54.384Z,530
2016-06-12T12:41:54.526Z,535
2016-06-12T12:42:54.515Z,525
2016-06-12T12:43:54.502Z,510
2016-06-12T12:44:54.490Z,490
2016-06-12T12:45:54.477Z,480
2016-06-12T12:46:54.464Z,480
2016-06-12T12:47:54.436Z,485
2016-06-12T12:48:54.439Z,480
2016-06-12T12:49:54.427Z,470
2016-06-12T12:50:54.415Z,450
2016-06-12T12:51:54.386Z,435
2016-06-12T12:52:55.358Z,425
2016-06-12T12:53:54.986Z,425
2016-06-12T12:54:54.364Z,430
2016-06-12T12:55:54.336Z,440
2016-06-12T12:56:54.339Z,455
2016-06-12T12:57:54.311Z,475
2016-06-12T12:58:54.329Z,500
2016-06-12T12:59:54.286Z,525
2016-06-12T13:00:54.288Z,530
2016-06-12T13:01:54.277Z,540
2016-06-12T13:02:54.249Z,540
2016-06-12T13:03:54.251Z,535
2016-06-12T13:04:54.254Z,535
2016-06-12T13:05:54.086Z,525
2016-06-12T13:06:54.213Z,525
2016-06-12T13:07:54.717Z,515
2016-06-12T13:08:54.188Z,505
2016-06-12T13:09:54.176Z,495
2016-06-12T13:10:54.163Z,485
2016-06-12T13:11:54.152Z,465
2016-06-12T13:12:54.154Z,465
2016-06-12T13:13:54.125Z,465
2016-06-12T13:14:54.113Z,465
2016-06-12T13:15:54.116Z,450
2016-06-12T13:16:54.087Z,435
2016-06-12T13:17:54.091Z,410
2016-06-12T13:18:54.063Z,395
2016-06-12T13:19:54.051Z,370
2016-06-12T13:20:54.038Z,340
2016-06-12T13:21:54.041Z,305
2016-06-12T13:22:54.122Z,280
2016-06-12T13:23:54.938Z,260
2016-06-12T13:24:54.004Z,240
2016-06-12T13:25:53.834Z,225
2016-06-12T13:26:53.962Z,210
2016-06-12T13:27:53.810Z,190
2016-06-12T13:28:53.796Z,165
2016-06-12T13:29:53.940Z,145
2016-06-12T13:30:53.928Z,125
2016-06-12T13:31:53.915Z,105
2016-06-12T13:32:53.886Z,100
2016-06-12T13:33:53.890Z,90
2016-06-12T13:34:53.862Z,80
2016-06-12T13:35:53.880Z,70
2016-06-12T13:36:53.853Z,65
2016-06-12T13:37:54.137Z,65
2016-06-12T13:38:54.828Z,65
2016-06-12T13:39:53.659Z,65
2016-06-12T13:40:53.802Z,75
2016-06-12T13:41:53.789Z,85
2016-06-12T13:42:53.777Z,90
2016-06-12T13:43:53.592Z,100
2016-06-12T13:44:53.596Z,110
2016-06-12T13:45:53.740Z,120
2016-06-12T13:46:53.743Z,130
2016-06-12T13:47:53.699Z,135
2016-06-12T13:48:53.685Z,140
2016-06-12T13:49:53.658Z,150
2016-06-12T13:50:53.661Z,155
2016-06-12T13:51:53.634Z,155
2016-06-12T13:52:53.542Z,150
2016-06-12T13:53:54.530Z,155
2016-06-12T13:54:53.596Z,150
2016-06-12T13:55:53.583Z,155
2016-06-12T13:56:53.554Z,160
2016-06-12T13:57:53.558Z,160
2016-06-12T13:58:53.546Z,155
2016-06-12T13:59:53.502Z,150
2016-06-12T14:00:53.505Z,170